sensor_id;sensor_type;location;lat;lon;timestamp;pressure;altitude;pressure_sealevel;temperature;humidity
27210;BME280;14721;42.668;23.386;2023-11-18T00:00:50;94613.38;;;6.40;100.00
27210;BME280;14721;42.668;23.386;2023-11-18T00:03:16;94606.25;;;6.28;100.00
27210;BME280;14721;42.668;23.386;2023-11-18T00:06:04;94551.09;;;5.96;100.00
27210;BME280;14721;42.668;23.386;2023-11-18T00:08:30;94589.78;;;5.98;100.00
27210;BME280;14721;42.668;23.386;2023-11-18T00:10:56;94612.28;;;6.05;100.00
27210;BME280;14721;42.668;23.386;2023-11-18T00:13:21;94594.69;;;6.04;100.00
27210;BME280;14721;42.668;23.386;2023-11-18T00:15:47;94602.13;;;6.12;100.00
27210;BME280;14721;42.668;23.386;2023-11-18T00:18:15;94601.88;;;6.02;100.00
27210;BME280;14721;42.668;23.386;2023-11-18T00:20:41;94646.88;;;6.16;100.00
27210;BME280;14721;42.668;23.386;2023-11-18T00:23:08;94644.34;;;6.15;100.00
27210;BME280;14721;42.668;23.386;2023-11-18T00:25:36;94652.19;;;6.16;100.00
27210;BME280;14721;42.668;23.386;2023-11-18T00:28:04;94620.78;;;6.10;100.00
27210;BME280;14721;42.668;23.386;2023-11-18T00:30:37;94627.47;;;6.16;100.00
27210;BME280;14721;42.668;23.386;2023-11-18T00:33:05;94598.00;;;6.08;100.00
27210;BME280;14721;42.668;23.386;2023-11-18T00:35:30;94591.06;;;6.05;100.00
27210;BME280;14721;42.668;23.386;2023-11-18T00:38:00;94599.22;;;6.02;100.00
27210;BME280;14721;42.668;23.386;2023-11-18T00:40:27;94612.50;;;6.15;100.00
27210;BME280;14721;42.668;23.386;2023-11-18T00:42:57;94612.81;;;6.10;100.00
27210;BME280;14721;42.668;23.386;2023-11-18T00:45:23;94604.00;;;6.10;100.00
27210;BME280;14721;42.668;23.386;2023-11-18T00:47:49;94615.78;;;6.06;100.00
27210;BME280;14721;42.668;23.386;2023-11-18T00:53:11;94619.41;;;6.05;100.00
27210;BME280;14721;42.668;23.386;2023-11-18T00:55:57;94576.69;;;5.70;100.00
27210;BME280;14721;42.668;23.386;2023-11-18T00:58:25;94605.16;;;5.93;100.00
27210;BME280;14721;42.668;23.386;2023-11-18T01:01:03;94622.69;;;5.96;100.00
27210;BME280;14721;42.668;23.386;2023-11-18T01:03:39;94547.81;;;5.53;100.00
27210;BME280;14721;42.668;23.386;2023-11-18T01:06:05;94609.66;;;5.78;100.00
27210;BME280;14721;42.668;23.386;2023-11-18T01:08:31;94611.75;;;5.73;100.00
27210;BME280;14721;42.668;23.386;2023-11-18T01:11:07;94622.81;;;5.80;100.00
27210;BME280;14721;42.668;23.386;2023-11-18T01:13:34;94621.28;;;5.90;100.00
27210;BME280;14721;42.668;23.386;2023-11-18T01:16:01;94640.91;;;5.88;100.00
27210;BME280;14721;42.668;23.386;2023-11-18T01:18:27;94621.97;;;5.79;100.00
27210;BME280;14721;42.668;23.386;2023-11-18T01:20:59;94626.28;;;5.68;100.00
27210;BME280;14721;42.668;23.386;2023-11-18T01:23:53;94576.81;;;5.42;100.00
27210;BME280;14721;42.668;23.386;2023-11-18T01:26:21;94627.88;;;5.70;100.00
27210;BME280;14721;42.668;23.386;2023-11-18T01:28:48;94617.81;;;5.75;100.00
27210;BME280;14721;42.668;23.386;2023-11-18T01:31:16;94617.72;;;5.77;100.00
27210;BME280;14721;42.668;23.386;2023-11-18T01:33:44;94635.22;;;5.79;100.00
27210;BME280;14721;42.668;23.386;2023-11-18T01:36:13;94636.16;;;5.78;100.00
27210;BME280;14721;42.668;23.386;2023-11-18T01:38:38;94609.25;;;5.45;100.00
27210;BME280;14721;42.668;23.386;2023-11-18T01:41:07;94644.28;;;5.63;100.00
27210;BME280;14721;42.668;23.386;2023-11-18T01:43:34;94636.31;;;5.63;100.00
27210;BME280;14721;42.668;23.386;2023-11-18T01:46:03;94636.72;;;5.57;100.00
27210;BME280;14721;42.668;23.386;2023-11-18T01:48:36;94626.75;;;5.48;100.00
27210;BME280;14721;42.668;23.386;2023-11-18T01:51:04;94625.59;;;5.52;100.00
27210;BME280;14721;42.668;23.386;2023-11-18T01:53:34;94632.78;;;5.50;100.00
27210;BME280;14721;42.668;23.386;2023-11-18T01:56:02;94623.28;;;5.33;100.00
27210;BME280;14721;42.668;23.386;2023-11-18T01:58:30;94572.22;;;5.05;100.00
27210;BME280;14721;42.668;23.386;2023-11-18T02:00:56;94604.97;;;5.30;100.00
27210;BME280;14721;42.668;23.386;2023-11-18T02:03:23;94604.25;;;5.14;100.00
27210;BME280;14721;42.668;23.386;2023-11-18T02:05:49;94634.84;;;5.32;100.00
27210;BME280;14721;42.668;23.386;2023-11-18T02:08:14;94599.75;;;5.02;100.00
27210;BME280;14721;42.668;23.386;2023-11-18T02:11:03;94641.22;;;5.16;100.00
27210;BME280;14721;42.668;23.386;2023-11-18T02:13:38;94644.94;;;5.13;100.00
27210;BME280;14721;42.668;23.386;2023-11-18T02:16:07;94615.94;;;4.98;100.00
27210;BME280;14721;42.668;23.386;2023-11-18T02:21:43;94661.47;;;5.17;100.00
27210;BME280;14721;42.668;23.386;2023-11-18T02:24:27;94647.78;;;5.10;100.00
27210;BME280;14721;42.668;23.386;2023-11-18T02:26:56;94640.47;;;5.14;100.00
27210;BME280;14721;42.668;23.386;2023-11-18T02:29:23;94637.09;;;5.12;99.56
27210;BME280;14721;42.668;23.386;2023-11-18T02:31:52;94647.34;;;5.16;98.85
27210;BME280;14721;42.668;23.386;2023-11-18T02:34:23;94634.44;;;5.12;98.73
27210;BME280;14721;42.668;23.386;2023-11-18T02:36:53;94626.69;;;5.09;97.89
27210;BME280;14721;42.668;23.386;2023-11-18T02:39:33;94579.38;;;4.76;96.96
27210;BME280;14721;42.668;23.386;2023-11-18T02:42:04;94606.50;;;4.94;96.45
27210;BME280;14721;42.668;23.386;2023-11-18T02:44:34;94646.91;;;5.10;96.62
27210;BME280;14721;42.668;23.386;2023-11-18T02:50:16;94620.03;;;4.75;97.17
27210;BME280;14721;42.668;23.386;2023-11-18T02:52:44;94610.13;;;4.79;96.21
27210;BME280;14721;42.668;23.386;2023-11-18T02:55:13;94640.44;;;4.87;96.17
27210;BME280;14721;42.668;23.386;2023-11-18T02:57:42;94696.22;;;4.98;96.36
27210;BME280;14721;42.668;23.386;2023-11-18T03:00:12;94681.53;;;4.93;96.13
27210;BME280;14721;42.668;23.386;2023-11-18T03:02:44;94665.56;;;4.94;95.90
27210;BME280;14721;42.668;23.386;2023-11-18T03:05:09;94673.06;;;4.74;95.34
27210;BME280;14721;42.668;23.386;2023-11-18T03:07:37;94677.50;;;4.73;94.72
27210;BME280;14721;42.668;23.386;2023-11-18T03:10:03;94685.91;;;4.66;94.65
27210;BME280;14721;42.668;23.386;2023-11-18T03:12:35;94697.91;;;4.71;95.66
27210;BME280;14721;42.668;23.386;2023-11-18T03:15:00;94694.97;;;4.62;95.74
27210;BME280;14721;42.668;23.386;2023-11-18T03:17:26;94657.25;;;4.30;96.71
27210;BME280;14721;42.668;23.386;2023-11-18T03:19:54;94701.50;;;4.56;96.35
27210;BME280;14721;42.668;23.386;2023-11-18T03:22:19;94727.69;;;4.61;96.00
27210;BME280;14721;42.668;23.386;2023-11-18T03:24:44;94729.19;;;4.65;95.97
27210;BME280;14721;42.668;23.386;2023-11-18T03:27:10;94732.97;;;4.61;95.95
27210;BME280;14721;42.668;23.386;2023-11-18T03:29:35;94709.16;;;4.61;95.76
27210;BME280;14721;42.668;23.386;2023-11-18T03:32:01;94711.72;;;4.62;94.61
27210;BME280;14721;42.668;23.386;2023-11-18T03:34:27;94729.38;;;4.62;94.16
27210;BME280;14721;42.668;23.386;2023-11-18T03:36:52;94714.91;;;4.53;94.27
27210;BME280;14721;42.668;23.386;2023-11-18T03:39:18;94742.47;;;4.49;94.13
27210;BME280;14721;42.668;23.386;2023-11-18T03:41:47;94726.59;;;4.49;94.20
27210;BME280;14721;42.668;23.386;2023-11-18T03:44:13;94723.78;;;4.38;93.78
27210;BME280;14721;42.668;23.386;2023-11-18T03:46:41;94742.00;;;4.43;93.95
27210;BME280;14721;42.668;23.386;2023-11-18T03:49:07;94735.28;;;4.37;94.48
27210;BME280;14721;42.668;23.386;2023-11-18T03:51:35;94715.72;;;4.26;94.42
27210;BME280;14721;42.668;23.386;2023-11-18T03:54:03;94740.66;;;4.36;93.63
27210;BME280;14721;42.668;23.386;2023-11-18T03:56:29;94718.34;;;4.26;93.19
27210;BME280;14721;42.668;23.386;2023-11-18T03:58:55;94707.56;;;4.15;93.24
27210;BME280;14721;42.668;23.386;2023-11-18T04:01:25;94687.91;;;4.05;92.57
27210;BME280;14721;42.668;23.386;2023-11-18T04:03:54;94743.31;;;4.36;92.23
27210;BME280;14721;42.668;23.386;2023-11-18T04:06:30;94718.22;;;4.13;92.02
27210;BME280;14721;42.668;23.386;2023-11-18T04:08:56;94731.06;;;4.19;92.12
27210;BME280;14721;42.668;23.386;2023-11-18T04:11:22;94710.00;;;4.04;90.99
27210;BME280;14721;42.668;23.386;2023-11-18T04:13:48;94749.13;;;4.27;91.42
27210;BME280;14721;42.668;23.386;2023-11-18T04:16:23;94743.81;;;4.13;91.21
27210;BME280;14721;42.668;23.386;2023-11-18T04:18:51;94750.91;;;4.12;90.96
27210;BME280;14721;42.668;23.386;2023-11-18T04:21:24;94737.75;;;4.11;90.42
27210;BME280;14721;42.668;23.386;2023-11-18T04:23:51;94747.38;;;4.12;90.22
27210;BME280;14721;42.668;23.386;2023-11-18T04:26:17;94740.59;;;4.08;90.67
27210;BME280;14721;42.668;23.386;2023-11-18T04:28:45;94751.34;;;4.05;90.15
27210;BME280;14721;42.668;23.386;2023-11-18T04:31:11;94777.69;;;4.06;90.53
27210;BME280;14721;42.668;23.386;2023-11-18T04:33:36;94770.44;;;4.10;90.87
27210;BME280;14721;42.668;23.386;2023-11-18T04:36:02;94760.31;;;4.02;90.21
27210;BME280;14721;42.668;23.386;2023-11-18T04:38:31;94751.28;;;3.90;90.07
27210;BME280;14721;42.668;23.386;2023-11-18T04:40:57;94766.59;;;4.00;90.21
27210;BME280;14721;42.668;23.386;2023-11-18T04:43:25;94765.59;;;4.02;89.91
27210;BME280;14721;42.668;23.386;2023-11-18T04:45:55;94757.31;;;4.08;89.67
27210;BME280;14721;42.668;23.386;2023-11-18T04:48:21;94741.91;;;4.15;90.00
27210;BME280;14721;42.668;23.386;2023-11-18T04:50:48;94754.41;;;4.27;89.65
27210;BME280;14721;42.668;23.386;2023-11-18T04:53:13;94729.41;;;4.03;88.17
27210;BME280;14721;42.668;23.386;2023-11-18T04:55:39;94736.59;;;4.01;87.80
27210;BME280;14721;42.668;23.386;2023-11-18T04:58:05;94762.25;;;4.14;88.04
27210;BME280;14721;42.668;23.386;2023-11-18T05:00:35;94756.28;;;4.11;88.56
27210;BME280;14721;42.668;23.386;2023-11-18T05:03:04;94762.88;;;4.04;88.28
27210;BME280;14721;42.668;23.386;2023-11-18T05:05:31;94741.38;;;3.94;87.61
27210;BME280;14721;42.668;23.386;2023-11-18T05:07:59;94764.66;;;3.87;88.02
27210;BME280;14721;42.668;23.386;2023-11-18T05:10:25;94751.53;;;3.86;88.56
27210;BME280;14721;42.668;23.386;2023-11-18T05:12:50;94755.72;;;3.90;88.70
27210;BME280;14721;42.668;23.386;2023-11-18T05:15:22;94756.09;;;3.84;88.35
27210;BME280;14721;42.668;23.386;2023-11-18T05:18:08;94750.03;;;3.82;88.02
27210;BME280;14721;42.668;23.386;2023-11-18T05:20:47;94748.25;;;3.82;88.39
27210;BME280;14721;42.668;23.386;2023-11-18T05:23:15;94759.47;;;3.86;88.41
27210;BME280;14721;42.668;23.386;2023-11-18T05:25:43;94736.31;;;3.75;88.09
27210;BME280;14721;42.668;23.386;2023-11-18T05:28:09;94711.19;;;3.53;88.29
27210;BME280;14721;42.668;23.386;2023-11-18T05:30:35;94747.81;;;3.74;88.34
27210;BME280;14721;42.668;23.386;2023-11-18T05:33:04;94741.38;;;3.64;88.28
27210;BME280;14721;42.668;23.386;2023-11-18T05:35:33;94725.25;;;3.53;88.48
27210;BME280;14721;42.668;23.386;2023-11-18T05:37:59;94739.03;;;3.74;88.59
27210;BME280;14721;42.668;23.386;2023-11-18T05:40:26;94675.63;;;3.29;87.72
27210;BME280;14721;42.668;23.386;2023-11-18T05:43:07;94674.25;;;3.37;87.55
27210;BME280;14721;42.668;23.386;2023-11-18T05:45:43;94702.53;;;3.51;88.50
27210;BME280;14721;42.668;23.386;2023-11-18T05:48:33;94736.56;;;3.71;87.74
27210;BME280;14721;42.668;23.386;2023-11-18T05:51:01;94724.56;;;3.65;87.50
27210;BME280;14721;42.668;23.386;2023-11-18T05:53:43;94730.44;;;3.70;87.89
27210;BME280;14721;42.668;23.386;2023-11-18T05:56:19;94679.75;;;3.48;87.83
27210;BME280;14721;42.668;23.386;2023-11-18T05:58:53;94694.63;;;3.35;87.68
27210;BME280;14721;42.668;23.386;2023-11-18T06:01:20;94726.44;;;3.63;88.05
27210;BME280;14721;42.668;23.386;2023-11-18T06:03:46;94715.03;;;3.47;88.25
27210;BME280;14721;42.668;23.386;2023-11-18T06:06:15;94692.66;;;3.39;88.49
27210;BME280;14721;42.668;23.386;2023-11-18T06:08:42;94696.91;;;3.41;88.40
27210;BME280;14721;42.668;23.386;2023-11-18T06:11:11;94733.53;;;3.63;88.22
27210;BME280;14721;42.668;23.386;2023-11-18T06:13:41;94719.72;;;3.58;88.03
27210;BME280;14721;42.668;23.386;2023-11-18T06:16:18;94730.81;;;3.64;87.94
27210;BME280;14721;42.668;23.386;2023-11-18T06:18:48;94753.97;;;3.75;87.85
27210;BME280;14721;42.668;23.386;2023-11-18T06:21:16;94757.44;;;3.75;88.30
27210;BME280;14721;42.668;23.386;2023-11-18T06:23:43;94751.84;;;3.66;88.74
27210;BME280;14721;42.668;23.386;2023-11-18T06:26:10;94750.72;;;3.54;88.38
27210;BME280;14721;42.668;23.386;2023-11-18T06:28:42;94780.03;;;3.65;89.19
27210;BME280;14721;42.668;23.386;2023-11-18T06:31:09;94748.34;;;3.65;88.91
27210;BME280;14721;42.668;23.386;2023-11-18T06:36:05;94731.06;;;3.44;88.96
27210;BME280;14721;42.668;23.386;2023-11-18T06:38:35;94750.31;;;3.46;88.92
27210;BME280;14721;42.668;23.386;2023-11-18T06:41:02;94741.28;;;3.50;89.28
27210;BME280;14721;42.668;23.386;2023-11-18T06:43:29;94749.56;;;3.60;88.88
27210;BME280;14721;42.668;23.386;2023-11-18T06:46:07;94783.28;;;3.70;88.78
27210;BME280;14721;42.668;23.386;2023-11-18T06:48:36;94756.09;;;3.68;88.37
27210;BME280;14721;42.668;23.386;2023-11-18T06:51:01;94781.66;;;3.83;87.22
27210;BME280;14721;42.668;23.386;2023-11-18T06:53:27;94759.00;;;3.79;87.08
27210;BME280;14721;42.668;23.386;2023-11-18T06:55:52;94760.69;;;3.80;85.78
27210;BME280;14721;42.668;23.386;2023-11-18T06:58:18;94768.09;;;3.89;85.63
27210;BME280;14721;42.668;23.386;2023-11-18T07:00:43;94782.38;;;4.01;85.14
27210;BME280;14721;42.668;23.386;2023-11-18T07:03:09;94776.81;;;4.06;84.42
27210;BME280;14721;42.668;23.386;2023-11-18T07:05:34;94802.16;;;4.10;83.90
27210;BME280;14721;42.668;23.386;2023-11-18T07:08:00;94767.22;;;3.89;84.03
27210;BME280;14721;42.668;23.386;2023-11-18T07:10:28;94815.66;;;4.05;83.56
27210;BME280;14721;42.668;23.386;2023-11-18T07:12:54;94770.66;;;3.75;83.03
27210;BME280;14721;42.668;23.386;2023-11-18T07:15:21;94814.88;;;4.03;83.83
27210;BME280;14721;42.668;23.386;2023-11-18T07:17:51;94805.34;;;4.01;83.86
27210;BME280;14721;42.668;23.386;2023-11-18T07:20:16;94808.88;;;4.00;83.61
27210;BME280;14721;42.668;23.386;2023-11-18T07:22:42;94764.78;;;3.70;84.59
27210;BME280;14721;42.668;23.386;2023-11-18T07:25:08;94771.44;;;3.77;84.85
27210;BME280;14721;42.668;23.386;2023-11-18T07:27:35;94779.88;;;3.84;83.81
27210;BME280;14721;42.668;23.386;2023-11-18T07:30:01;94798.19;;;3.87;84.83
27210;BME280;14721;42.668;23.386;2023-11-18T07:32:27;94776.28;;;3.85;85.44
27210;BME280;14721;42.668;23.386;2023-11-18T07:34:53;94798.84;;;3.90;85.17
27210;BME280;14721;42.668;23.386;2023-11-18T07:37:26;94802.44;;;3.89;84.85
27210;BME280;14721;42.668;23.386;2023-11-18T07:39:52;94757.91;;;3.52;84.96
27210;BME280;14721;42.668;23.386;2023-11-18T07:42:18;94792.56;;;3.77;84.29
27210;BME280;14721;42.668;23.386;2023-11-18T07:44:44;94729.19;;;3.46;84.55
27210;BME280;14721;42.668;23.386;2023-11-18T07:47:09;94777.69;;;3.90;84.19
27210;BME280;14721;42.668;23.386;2023-11-18T07:49:36;94789.81;;;3.95;83.77
27210;BME280;14721;42.668;23.386;2023-11-18T07:52:03;94799.78;;;4.05;84.21
27210;BME280;14721;42.668;23.386;2023-11-18T07:54:28;94824.66;;;4.17;83.93
27210;BME280;14721;42.668;23.386;2023-11-18T07:56:54;94806.84;;;4.05;83.49
27210;BME280;14721;42.668;23.386;2023-11-18T07:59:20;94796.88;;;4.10;83.22
27210;BME280;14721;42.668;23.386;2023-11-18T08:01:46;94748.78;;;3.73;82.23
27210;BME280;14721;42.668;23.386;2023-11-18T08:04:12;94792.78;;;4.04;82.64
27210;BME280;14721;42.668;23.386;2023-11-18T08:06:42;94800.97;;;4.00;82.71
27210;BME280;14721;42.668;23.386;2023-11-18T08:09:09;94817.41;;;4.05;82.34
27210;BME280;14721;42.668;23.386;2023-11-18T08:11:38;94807.88;;;4.02;82.90
27210;BME280;14721;42.668;23.386;2023-11-18T08:14:09;94814.34;;;3.97;82.55
27210;BME280;14721;42.668;23.386;2023-11-18T08:16:35;94821.03;;;4.04;82.54
27210;BME280;14721;42.668;23.386;2023-11-18T08:19:01;94826.38;;;4.02;82.52
27210;BME280;14721;42.668;23.386;2023-11-18T08:21:36;94828.16;;;4.02;82.04
27210;BME280;14721;42.668;23.386;2023-11-18T08:24:05;94802.34;;;3.91;82.24
27210;BME280;14721;42.668;23.386;2023-11-18T08:26:31;94825.44;;;4.03;81.71
27210;BME280;14721;42.668;23.386;2023-11-18T08:28:57;94796.56;;;3.84;81.79
27210;BME280;14721;42.668;23.386;2023-11-18T08:31:22;94785.72;;;3.89;81.91
27210;BME280;14721;42.668;23.386;2023-11-18T08:33:48;94804.31;;;3.87;81.57
27210;BME280;14721;42.668;23.386;2023-11-18T11:07:25;94713.78;;;4.57;75.99
27210;BME280;14721;42.668;23.386;2023-11-18T11:09:52;94766.81;;;4.84;75.96
27210;BME280;14721;42.668;23.386;2023-11-18T11:12:23;94742.16;;;4.83;75.79
27210;BME280;14721;42.668;23.386;2023-11-18T11:15:15;94728.78;;;4.57;75.34
27210;BME280;14721;42.668;23.386;2023-11-18T11:17:52;94754.66;;;4.38;76.05
27210;BME280;14721;42.668;23.386;2023-11-18T11:20:25;94764.47;;;4.36;76.16
27210;BME280;14721;42.668;23.386;2023-11-18T11:41:05;94773.94;;;4.54;76.66
27210;BME280;14721;42.668;23.386;2023-11-18T11:43:34;94778.94;;;4.44;76.79
27210;BME280;14721;42.668;23.386;2023-11-18T11:46:01;94791.59;;;4.39;77.44
27210;BME280;14721;42.668;23.386;2023-11-18T11:48:35;94780.41;;;4.34;77.50
27210;BME280;14721;42.668;23.386;2023-11-18T11:53:45;94763.91;;;4.45;76.73
27210;BME280;14721;42.668;23.386;2023-11-18T11:56:13;94775.94;;;4.50;76.61
27210;BME280;14721;42.668;23.386;2023-11-18T11:58:49;94752.81;;;4.24;76.55
27210;BME280;14721;42.668;23.386;2023-11-18T18:14:20;95076.16;;;4.11;77.72
27210;BME280;14721;42.668;23.386;2023-11-18T18:16:58;95077.28;;;3.89;78.03
27210;BME280;14721;42.668;23.386;2023-11-18T18:19:55;95044.34;;;3.79;77.80
27210;BME280;14721;42.668;23.386;2023-11-18T18:29:20;95029.22;;;3.66;77.33
27210;BME280;14721;42.668;23.386;2023-11-18T18:35:50;95038.03;;;3.82;77.29
27210;BME280;14721;42.668;23.386;2023-11-18T18:38:31;95028.84;;;3.89;76.47
27210;BME280;14721;42.668;23.386;2023-11-18T18:44:49;95099.88;;;4.12;76.10
27210;BME280;14721;42.668;23.386;2023-11-18T18:47:28;95109.25;;;4.18;76.04
27210;BME280;14721;42.668;23.386;2023-11-18T18:50:23;95051.03;;;3.86;75.71
27210;BME280;14721;42.668;23.386;2023-11-18T19:03:06;95071.84;;;3.92;75.74
27210;BME280;14721;42.668;23.386;2023-11-18T19:22:17;95062.06;;;3.77;76.13
27210;BME280;14721;42.668;23.386;2023-11-18T19:28:41;95077.22;;;3.74;76.73
27210;BME280;14721;42.668;23.386;2023-11-18T19:31:26;95104.41;;;3.93;76.20
27210;BME280;14721;42.668;23.386;2023-11-18T19:34:02;95166.19;;;4.25;76.77
27210;BME280;14721;42.668;23.386;2023-11-18T19:36:57;95071.56;;;3.64;76.99
27210;BME280;14721;42.668;23.386;2023-11-18T19:39:54;95120.44;;;3.90;77.01
27210;BME280;14721;42.668;23.386;2023-11-18T19:42:49;95189.53;;;4.17;77.28
27210;BME280;14721;42.668;23.386;2023-11-18T19:45:35;95122.22;;;3.89;77.73
27210;BME280;14721;42.668;23.386;2023-11-18T19:48:21;95155.00;;;4.03;77.67
27210;BME280;14721;42.668;23.386;2023-11-18T19:50:50;95161.38;;;3.99;77.96
27210;BME280;14721;42.668;23.386;2023-11-18T19:53:15;95167.81;;;4.10;77.68
27210;BME280;14721;42.668;23.386;2023-11-18T19:55:42;95170.31;;;4.13;77.81
27210;BME280;14721;42.668;23.386;2023-11-18T20:09:58;95177.41;;;4.13;77.88
27210;BME280;14721;42.668;23.386;2023-11-18T20:16:01;95112.13;;;3.80;77.56
27210;BME280;14721;42.668;23.386;2023-11-18T20:18:40;95130.22;;;3.88;77.27
27210;BME280;14721;42.668;23.386;2023-11-18T20:21:16;95151.75;;;3.98;77.75
27210;BME280;14721;42.668;23.386;2023-11-18T20:23:41;95143.66;;;4.01;77.59
27210;BME280;14721;42.668;23.386;2023-11-18T20:26:12;95159.44;;;4.02;77.82
27210;BME280;14721;42.668;23.386;2023-11-18T20:28:51;95088.50;;;3.77;77.63
27210;BME280;14721;42.668;23.386;2023-11-18T20:31:27;95111.00;;;3.84;77.44
27210;BME280;14721;42.668;23.386;2023-11-18T20:33:52;95112.19;;;3.96;77.26
27210;BME280;14721;42.668;23.386;2023-11-18T20:36:38;95068.22;;;3.78;77.46
27210;BME280;14721;42.668;23.386;2023-11-18T20:39:07;95069.75;;;3.65;77.74
27210;BME280;14721;42.668;23.386;2023-11-18T20:41:35;95098.59;;;3.86;77.98
27210;BME280;14721;42.668;23.386;2023-11-18T20:44:14;95105.09;;;3.97;78.28
27210;BME280;14721;42.668;23.386;2023-11-18T20:46:45;95111.00;;;4.02;78.36
27210;BME280;14721;42.668;23.386;2023-11-18T20:49:28;95096.03;;;3.85;78.18
27210;BME280;14721;42.668;23.386;2023-11-18T20:51:53;95077.13;;;3.75;78.50
27210;BME280;14721;42.668;23.386;2023-11-18T20:54:22;95109.78;;;3.92;78.71
27210;BME280;14721;42.668;23.386;2023-11-18T20:56:48;95083.06;;;3.80;78.54
27210;BME280;14721;42.668;23.386;2023-11-18T20:59:19;95101.38;;;4.01;78.57
27210;BME280;14721;42.668;23.386;2023-11-18T21:01:51;95093.94;;;3.92;78.65
27210;BME280;14721;42.668;23.386;2023-11-18T21:04:16;95037.78;;;3.54;78.61
27210;BME280;14721;42.668;23.386;2023-11-18T21:07:01;95086.47;;;3.82;78.74
27210;BME280;14721;42.668;23.386;2023-11-18T21:09:39;95134.47;;;3.90;78.94
27210;BME280;14721;42.668;23.386;2023-11-18T21:12:05;95130.94;;;3.92;79.09
27210;BME280;14721;42.668;23.386;2023-11-18T21:14:32;95145.38;;;4.02;78.81
27210;BME280;14721;42.668;23.386;2023-11-18T21:16:59;95140.16;;;4.00;79.02
27210;BME280;14721;42.668;23.386;2023-11-18T21:19:24;95158.44;;;4.05;78.84
27210;BME280;14721;42.668;23.386;2023-11-18T21:22:00;95162.59;;;4.09;78.80
27210;BME280;14721;42.668;23.386;2023-11-18T21:24:27;95129.34;;;3.87;78.69
27210;BME280;14721;42.668;23.386;2023-11-18T21:26:54;95173.81;;;4.14;78.76
27210;BME280;14721;42.668;23.386;2023-11-18T21:29:25;95163.09;;;4.17;78.92
27210;BME280;14721;42.668;23.386;2023-11-18T21:31:52;95166.34;;;4.22;78.14
27210;BME280;14721;42.668;23.386;2023-11-18T21:34:18;95157.47;;;4.23;78.03
27210;BME280;14721;42.668;23.386;2023-11-18T21:36:43;95131.91;;;4.06;78.26
27210;BME280;14721;42.668;23.386;2023-11-18T21:39:09;95120.88;;;3.98;78.79
27210;BME280;14721;42.668;23.386;2023-11-18T21:41:39;95145.59;;;4.14;78.36
27210;BME280;14721;42.668;23.386;2023-11-18T21:44:05;95142.16;;;4.12;78.04
27210;BME280;14721;42.668;23.386;2023-11-18T21:46:34;95136.88;;;4.12;78.18
27210;BME280;14721;42.668;23.386;2023-11-18T21:49:03;95169.91;;;4.21;78.57
27210;BME280;14721;42.668;23.386;2023-11-18T21:51:37;95164.03;;;4.16;77.87
27210;BME280;14721;42.668;23.386;2023-11-18T21:54:03;95174.59;;;4.16;78.40
27210;BME280;14721;42.668;23.386;2023-11-18T21:56:36;95183.53;;;4.13;78.57
27210;BME280;14721;42.668;23.386;2023-11-18T21:59:02;95171.56;;;4.06;78.93
27210;BME280;14721;42.668;23.386;2023-11-18T22:01:30;95179.88;;;4.16;78.85
27210;BME280;14721;42.668;23.386;2023-11-18T22:03:56;95157.03;;;3.98;78.55
27210;BME280;14721;42.668;23.386;2023-11-18T22:06:22;95191.31;;;4.16;79.27
27210;BME280;14721;42.668;23.386;2023-11-18T22:08:51;95188.22;;;4.08;79.11
27210;BME280;14721;42.668;23.386;2023-11-18T22:11:17;95199.22;;;4.16;79.22
27210;BME280;14721;42.668;23.386;2023-11-18T22:13:48;95210.75;;;4.15;79.60
27210;BME280;14721;42.668;23.386;2023-11-18T22:16:14;95201.47;;;4.24;78.87
27210;BME280;14721;42.668;23.386;2023-11-18T22:18:40;95204.28;;;4.21;78.80
27210;BME280;14721;42.668;23.386;2023-11-18T22:21:06;95205.53;;;4.14;79.40
27210;BME280;14721;42.668;23.386;2023-11-18T22:23:32;95186.41;;;4.09;79.34
27210;BME280;14721;42.668;23.386;2023-11-18T22:25:58;95191.84;;;4.06;79.18
27210;BME280;14721;42.668;23.386;2023-11-18T22:28:24;95178.63;;;4.06;79.56
27210;BME280;14721;42.668;23.386;2023-11-18T22:30:51;95167.16;;;3.89;79.33
27210;BME280;14721;42.668;23.386;2023-11-18T22:33:24;95201.19;;;4.13;79.29
27210;BME280;14721;42.668;23.386;2023-11-18T22:35:49;95189.19;;;4.23;79.08
27210;BME280;14721;42.668;23.386;2023-11-18T22:38:15;95212.06;;;4.24;79.00
27210;BME280;14721;42.668;23.386;2023-11-18T22:40:40;95197.63;;;4.14;79.00
27210;BME280;14721;42.668;23.386;2023-11-18T22:43:08;95211.22;;;4.23;79.39
27210;BME280;14721;42.668;23.386;2023-11-18T22:45:35;95178.47;;;4.09;79.57
27210;BME280;14721;42.668;23.386;2023-11-18T22:48:04;95184.63;;;4.09;79.38
27210;BME280;14721;42.668;23.386;2023-11-18T22:50:30;95196.50;;;4.18;79.89
27210;BME280;14721;42.668;23.386;2023-11-18T22:53:01;95168.28;;;4.01;79.70
27210;BME280;14721;42.668;23.386;2023-11-18T22:55:26;95210.19;;;4.26;79.67
27210;BME280;14721;42.668;23.386;2023-11-18T22:57:54;95211.97;;;4.25;79.69
27210;BME280;14721;42.668;23.386;2023-11-18T23:00:21;95217.50;;;4.21;79.87
27210;BME280;14721;42.668;23.386;2023-11-18T23:03:08;95204.84;;;4.10;80.04
27210;BME280;14721;42.668;23.386;2023-11-18T23:05:36;95212.75;;;4.10;79.73
27210;BME280;14721;42.668;23.386;2023-11-18T23:08:05;95224.22;;;4.11;80.01
27210;BME280;14721;42.668;23.386;2023-11-18T23:10:37;95240.69;;;4.16;80.55
27210;BME280;14721;42.668;23.386;2023-11-18T23:13:03;95231.19;;;4.12;80.18
27210;BME280;14721;42.668;23.386;2023-11-18T23:15:30;95216.81;;;4.00;80.54
27210;BME280;14721;42.668;23.386;2023-11-18T23:17:55;95256.41;;;4.19;80.50
27210;BME280;14721;42.668;23.386;2023-11-18T23:20:24;95252.03;;;4.18;80.57
27210;BME280;14721;42.668;23.386;2023-11-18T23:22:50;95230.59;;;4.07;80.57
27210;BME280;14721;42.668;23.386;2023-11-18T23:25:16;95247.38;;;4.23;80.58
27210;BME280;14721;42.668;23.386;2023-11-18T23:27:42;95209.69;;;4.02;80.13